| time (UTC) | temp F | wind direction | speed MPH | gust MPH | rain 1hr in | rain 24hr in | rain mn in | humidity % | barometer mb |
| 20260508060055 | 38 | 0 | 0.0 | 0.0 | 0.00 | 0.11 | 0.00 | 92 | 1009.6 |
| 20260508054640 | 38 | 315 | 0.0 | 1.0 | 0.00 | 0.11 | 0.00 | 91 | 1009.6 |
| 20260508053056 | 38 | 0 | 0.0 | 1.0 | 0.00 | 0.11 | 0.00 | 91 | 1009.6 |
| 20260508051559 | 38 | 0 | 0.0 | 0.0 | 0.00 | 0.11 | 0.00 | 90 | 1009.9 |
| 20260508050059 | 39 | 0 | 0.0 | 1.0 | 0.00 | 0.11 | 0.00 | 89 | 1009.8 |
| 20260508044601 | 39 | 0 | 0.0 | 1.0 | 0.00 | 0.11 | 0.00 | 89 | 1009.8 |
| 20260508043055 | 40 | 0 | 0.0 | 1.0 | 0.00 | 0.11 | 0.00 | 89 | 1009.9 |
| 20260508041602 | 40 | 0 | 0.0 | 0.0 | 0.00 | 0.11 | 0.00 | 87 | 1009.9 |
| 20260508040100 | 41 | 0 | 0.0 | 0.0 | 0.00 | 0.11 | 0.00 | 87 | 1010.0 |
| 20260508034603 | 41 | 315 | 0.0 | 0.0 | 0.00 | 0.11 | 0.11 | 86 | 1010.0 |
| 20260508033053 | 42 | 0 | 0.0 | 0.0 | 0.00 | 0.11 | 0.11 | 82 | 1010.0 |
| 20260508031603 | 42 | 0 | 0.0 | 1.0 | 0.00 | 0.11 | 0.11 | 81 | 1010.2 |
| 20260508030112 | 43 | 0 | 0.0 | 0.0 | 0.00 | 0.11 | 0.11 | 80 | 1010.0 |
| 20260508024608 | 44 | 0 | 0.0 | 1.0 | 0.00 | 0.16 | 0.11 | 78 | 1010.0 |
| 20260508023103 | 45 | 0 | 0.0 | 0.0 | 0.00 | 0.16 | 0.11 | 76 | 1010.1 |
| 20260508021616 | 45 | 0 | 0.0 | 1.0 | 0.00 | 0.16 | 0.11 | 73 | 1010.1 |
| 20260508020055 | 46 | 0 | 0.0 | 1.0 | 0.00 | 0.16 | 0.11 | 71 | 1010.0 |
| 20260508014559 | 48 | 0 | 0.0 | 2.0 | 0.00 | 0.16 | 0.11 | 70 | 1009.9 |
| 20260508013108 | 49 | 0 | 0.0 | 0.0 | 0.00 | 0.16 | 0.11 | 62 | 1009.7 |
| 20260508011600 | 50 | 0 | 0.0 | 2.0 | 0.00 | 0.16 | 0.11 | 59 | 1009.6 |
| 20260508010055 | 52 | 0 | 0.0 | 1.0 | 0.00 | 0.16 | 0.11 | 55 | 1009.5 |
| 20260508004559 | 53 | 0 | 0.0 | 3.0 | 0.00 | 0.16 | 0.11 | 51 | 1009.3 |
| 20260508003104 | 54 | 0 | 1.0 | 4.0 | 0.00 | 0.16 | 0.11 | 48 | 1009.0 |
| 20260508001556 | 55 | 344 | 1.0 | 4.0 | 0.00 | 0.16 | 0.11 | 47 | 1009.0 |
| 20260508000054 | 56 | 294 | 2.0 | 8.0 | 0.00 | 0.16 | 0.11 | 45 | 1008.6 |
| 20260507234556 | 56 | 360 | 5.0 | 11.0 | 0.00 | 0.16 | 0.11 | 44 | 1008.6 |
| 20260507233055 | 57 | 348 | 4.0 | 9.0 | 0.00 | 0.16 | 0.11 | 43 | 1008.4 |
| 20260507231559 | 57 | 323 | 2.0 | 8.0 | 0.00 | 0.16 | 0.11 | 43 | 1008.2 |
| 20260507230057 | 58 | 33 | 3.0 | 11.0 | 0.00 | 0.16 | 0.11 | 43 | 1008.3 |
| 20260507224604 | 58 | 290 | 3.0 | 11.0 | 0.00 | 0.16 | 0.11 | 41 | 1008.2 |
| 20260507223100 | 59 | 281 | 4.0 | 9.0 | 0.00 | 0.16 | 0.11 | 41 | 1008.1 |
| 20260507221555 | 59 | 332 | 3.0 | 9.0 | 0.00 | 0.16 | 0.11 | 41 | 1008.0 |
| 20260507220058 | 60 | 232 | 6.0 | 14.0 | 0.00 | 0.16 | 0.11 | 40 | 1008.0 |
| 20260507214555 | 60 | 348 | 4.0 | 8.0 | 0.00 | 0.16 | 0.11 | 41 | 1007.9 |
| 20260507213057 | 60 | 5 | 4.0 | 10.0 | 0.00 | 0.16 | 0.11 | 39 | 1007.9 |
| 20260507211554 | 60 | 323 | 5.0 | 13.0 | 0.00 | 0.16 | 0.11 | 39 | 1007.8 |
| 20260507210119 | 60 | 360 | 5.0 | 14.0 | 0.00 | 0.16 | 0.11 | 40 | 1007.7 |
| 20260507204600 | 59 | 290 | 6.0 | 11.0 | 0.00 | 0.20 | 0.11 | 41 | 1007.8 |
| 20260507203059 | 60 | 26 | 4.0 | 10.0 | 0.00 | 0.20 | 0.11 | 39 | 1007.7 |
| 20260507201554 | 61 | 328 | 6.0 | 12.0 | 0.00 | 0.20 | 0.11 | 38 | 1007.7 |
| 20260507200106 | 61 | 5 | 7.0 | 13.0 | 0.00 | 0.20 | 0.11 | 39 | 1007.8 |
| 20260507194557 | 61 | 9 | 4.0 | 12.0 | 0.00 | 0.25 | 0.11 | 39 | 1008.0 |
| 20260507193113 | 61 | 55 | 6.0 | 14.0 | 0.00 | 0.25 | 0.11 | 38 | 1008.2 |
| 20260507191600 | 61 | 323 | 4.0 | 13.0 | 0.00 | 0.25 | 0.11 | 38 | 1008.3 |
| 20260507184559 | 61 | 5 | 5.0 | 14.0 | 0.00 | 0.27 | 0.11 | 43 | 1008.5 |
| 20260507183105 | 59 | 11 | 6.0 | 17.0 | 0.00 | 0.27 | 0.11 | 39 | 1008.7 |
| 20260507181558 | 60 | 170 | 4.0 | 13.0 | 0.00 | 0.27 | 0.11 | 38 | 1008.7 |
| 20260507180059 | 60 | 337 | 4.0 | 12.0 | 0.00 | 0.27 | 0.11 | 38 | 1008.8 |
| 20260507174601 | 60 | 341 | 6.0 | 19.0 | 0.00 | 0.31 | 0.11 | 34 | 1009.0 |
| 20260507173132 | 61 | 321 | 3.0 | 10.0 | 0.00 | 0.31 | 0.11 | 37 | 1009.2 |
| 20260507171603 | 60 | 289 | 3.0 | 12.0 | 0.00 | 0.31 | 0.11 | 42 | 1009.4 |
| 20260507170056 | 59 | 254 | 5.0 | 13.0 | 0.00 | 0.31 | 0.11 | 39 | 1009.5 |
| 20260507164606 | 60 | 267 | 2.0 | 10.0 | 0.00 | 0.31 | 0.11 | 40 | 1009.4 |
| 20260507163056 | 59 | 317 | 5.0 | 13.0 | 0.00 | 0.31 | 0.11 | 41 | 1009.6 |
| 20260507161613 | 58 | 191 | 3.0 | 9.0 | 0.00 | 0.31 | 0.11 | 42 | 1009.7 |
| 20260507160111 | 58 | 34 | 2.0 | 16.0 | 0.00 | 0.31 | 0.11 | 43 | 1010.0 |
| 20260507154556 | 57 | 296 | 7.0 | 19.0 | 0.00 | 0.31 | 0.11 | 42 | 1010.2 |
| 20260507153101 | 56 | 277 | 7.0 | 15.0 | 0.00 | 0.31 | 0.11 | 40 | 1010.5 |
| 20260507151557 | 56 | 15 | 6.0 | 14.0 | 0.00 | 0.31 | 0.11 | 43 | 1010.6 |
| 20260507150056 | 55 | 309 | 7.0 | 15.0 | 0.00 | 0.31 | 0.11 | 42 | 1010.4 |
| 20260507144600 | 55 | 250 | 6.0 | 12.0 | 0.00 | 0.31 | 0.11 | 46 | 1010.4 |
| 20260507143101 | 55 | 330 | 5.0 | 13.0 | 0.00 | 0.31 | 0.11 | 47 | 1010.6 |
| 20260507141615 | 54 | 34 | 5.0 | 15.0 | 0.00 | 0.31 | 0.11 | 50 | 1010.7 |
| 20260507140111 | 54 | 22 | 5.0 | 12.0 | 0.00 | 0.31 | 0.11 | 51 | 1010.8 |
| 20260507134606 | 53 | 360 | 4.0 | 14.0 | 0.00 | 0.31 | 0.11 | 54 | 1010.6 |
| 20260507133056 | 53 | 16 | 5.0 | 13.0 | 0.00 | 0.31 | 0.11 | 54 | 1010.7 |
| 20260507131601 | 53 | 355 | 4.0 | 13.0 | 0.00 | 0.31 | 0.11 | 58 | 1010.6 |
| 20260507130108 | 52 | 336 | 3.0 | 8.0 | 0.00 | 0.31 | 0.11 | 61 | 1010.6 |
| 20260507124604 | 51 | 187 | 4.0 | 14.0 | 0.00 | 0.31 | 0.11 | 61 | 1010.8 |
| 20260507123102 | 50 | 355 | 3.0 | 11.0 | 0.00 | 0.31 | 0.11 | 63 | 1010.8 |
| 20260507121601 | 49 | 337 | 4.0 | 15.0 | 0.00 | 0.31 | 0.11 | 67 | 1010.7 |
| 20260507120113 | 49 | 272 | 3.0 | 9.0 | 0.00 | 0.31 | 0.11 | 81 | 1010.6 |
| 20260507114609 | 47 | 0 | 3.0 | 9.0 | 0.00 | 0.31 | 0.11 | 83 | 1010.4 |
| 20260507113056 | 47 | 279 | 2.0 | 8.0 | 0.00 | 0.31 | 0.11 | 88 | 1010.2 |
| 20260507111600 | 47 | 355 | 1.0 | 4.0 | 0.00 | 0.31 | 0.11 | 94 | 1010.2 |
| 20260507110056 | 47 | 0 | 1.0 | 4.0 | 0.00 | 0.31 | 0.11 | 95 | 1010.0 |
| 20260507104556 | 47 | 0 | 0.0 | 2.0 | 0.00 | 0.31 | 0.11 | 96 | 1009.9 |
| 20260507103054 | 47 | 0 | 0.0 | 2.0 | 0.00 | 0.31 | 0.11 | 95 | 1009.7 |
| 20260507101616 | 47 | 10 | 0.0 | 5.0 | 0.00 | 0.31 | 0.11 | 95 | 1009.5 |
| 20260507100053 | 47 | 14 | 0.0 | 5.0 | 0.01 | 0.31 | 0.11 | 95 | 1009.1 |
| 20260507094557 | 47 | 0 | 0.0 | 3.0 | 0.01 | 0.31 | 0.11 | 96 | 1009.1 |
| 20260507093059 | 48 | 0 | 0.0 | 1.0 | 0.02 | 0.31 | 0.11 | 96 | 1009.2 |
| 20260507091556 | 48 | 0 | 0.0 | 3.0 | 0.02 | 0.31 | 0.11 | 96 | 1009.0 |
| 20260507084555 | 48 | 0 | 0.0 | 1.0 | 0.04 | 0.30 | 0.10 | 96 | 1008.9 |
| 20260507083056 | 48 | 0 | 0.0 | 2.0 | 0.04 | 0.29 | 0.09 | 96 | 1009.2 |
| 20260507081556 | 49 | 47 | 0.0 | 3.0 | 0.05 | 0.29 | 0.09 | 95 | 1009.1 |
| 20260507080058 | 49 | 0 | 0.0 | 4.0 | 0.06 | 0.28 | 0.08 | 95 | 1009.0 |
| 20260507074558 | 49 | 0 | 0.0 | 2.0 | 0.04 | 0.26 | 0.06 | 95 | 1009.7 |
| 20260507073054 | 49 | 0 | 0.0 | 2.0 | 0.05 | 0.25 | 0.05 | 94 | 1009.2 |
| 20260507071606 | 49 | 0 | 1.0 | 3.0 | 0.04 | 0.24 | 0.04 | 94 | 1009.0 |
| 20260507070100 | 49 | 0 | 0.0 | 3.0 | 0.02 | 0.22 | 0.02 | 94 | 1009.0 |
| 20260507064619 | 50 | 350 | 1.0 | 3.0 | 0.02 | 0.22 | 0.02 | 93 | 1008.7 |
| 20260507063056 | 50 | 348 | 2.0 | 8.0 | 0.00 | 0.20 | 0.00 | 93 | 1008.8 |
| 20260507061557 | 51 | 360 | 2.0 | 4.0 | 0.00 | 0.20 | 0.00 | 92 | 1008.3 |